Terminal Aerodrome Forecast
Issued by NWS

Home | Current Version | Previous Version | Text Only | Print | Product List | Glossary On
Versions: 1 2 3 4 5 6 7 8 9 10 11 12 13 14 15 16 17 18 19 20 21 22 23 24 25 26 27 28 29 30 31 32
000
FTUS43 KGLD 221120
TAFMCK
TAF
KMCK 221120Z 2212/2312 20009KT P6SM SKC
     FM221500 28009KT P6SM SCT180
     FM221700 33012G17KT P6SM FEW150 SCT250
     FM222000 01018G28KT P6SM FEW035 SCT150 SCT250
     FM230300 03011KT P6SM SCT140
     FM230800 36006KT P6SM BKN100=

USA.gov is the U.S. government's official web portal to all federal, state and local government web resources and services.